Ana Sayfa
METAR-TAF:

METAR-TAF

Havaalanları :

Tiflis Uluslararası Havalimanı

Tiflis, Gürcistan

Enlem: 41-40-09N, Boylam: 044-57-17E, yükseklik: 495 m

Güncel hava durumu gözlemi

Rapor saat 05:30 UTC de 24 dakika önce yapıldı.
Rüzgar batı/kuzeybatıdan 3 kt, batı/güneybatı ve kuzey arasında değişken
Sıcaklık 25°C
Nem 54%
Basınç 1015 hPa
Görüş mesafesi 10 km veya daha fazla
1500 m altında bulut yok ve kümülonimbus yok

METAR: UGTB 170530Z 29003KT 240V360 CAVOK 25/15 Q1015 NOSIG

Saat: 09:54 (05:54 UTC)

Tahmin

Rapor saat 05:00 UTC de 54 dakika önce yapıldı.
Ayın 17'si saat 06 UTC'den ayın 18'si saat 06 UTC'ye kadar geçerli Tahmin
Rüzgar doğu/güneydoğudan 7 kt
Görüş mesafesi 10 km veya daha fazla
1500 m altında bulut yok ve kümülonimbus yok
Geçici
ayın 17'si saat 18 UTC'den ayın 17'si saat 24 UTC'ye kadar
5000 ft yükseklikte parçalı çok bulutlu

TAF: UGTB 170500Z 1706/1806 12007KT CAVOK TX30/1711Z TN21/1802Z TEMPO 1718/1724 BKN050

4.000'den fazla havaalanı için hava durumu gözlemleri ve tahminleri (METAR ve TAF raporları).

Kullanılabilir istasyonlar harita üzerinde sarı ve kırmızı noktalarla gösterilir.

İstasyonun adını görmek için fareyi noktanın üzerinde gezdirin.

Sonrasında hava gözlem ve tahminlerini görmek için tıklayın.

Haritayı değiştirmek için: yaklaştırmak için siyah artı işaretli yeşil düğmeye ve uzaklaştırmak için de eksi işaretli düğmeye hızla tıklayın; bitişik haritalar için yeşil okları kullanın.


METAR-TAF: